Cave Ridge, Kentucky
Current Conditions -  °F | °C
As of 4:15 PM on Sunday 23 Nov 2014 (Local Time) from KGLW Reporting Station
Light Rain Light Rain  
Wind Chill: 56°   Ceiling: 1100
Heat Index: 56°   Visibility: 10mi
Dew Point: 56°   Wind: 12mph
Humidity: 100%   Direction: 130°SE
Pressure: 29.45"   Gusts: 16mph
Location:  36.9886°N, 85.5829°W
Report Text: KGLW 232215Z AUTO 13010G14KT 10SM -RA BKN011 BKN018 OVC040 14/14 A2945 RMK AO2 P0001 T01350135
Loading
Personal Weather Stations






























Interactive Weather Map New forecast layout! Learn more

10-Day Weather Forecast

Advertisements
Track Severe Weather on mobile